createdAt,value
2022-10-31T00:02:02.177Z,14.67
2022-10-31T00:04:05.031Z,14.78
2022-10-31T00:06:07.180Z,14.74
2022-10-31T00:08:09.130Z,14.74
2022-10-31T00:10:11.386Z,14.85
2022-10-31T00:12:13.215Z,14.83
2022-10-31T00:14:15.346Z,14.78
2022-10-31T00:16:19.989Z,14.87
2022-10-31T00:18:21.831Z,14.91
2022-10-31T00:20:23.687Z,14.83
2022-10-31T00:22:26.118Z,14.76
2022-10-31T00:24:27.915Z,14.77
2022-10-31T00:26:31.268Z,14.71
2022-10-31T00:28:34.412Z,14.65
2022-10-31T00:30:36.234Z,14.72
2022-10-31T00:32:38.027Z,14.64
2022-10-31T00:34:40.129Z,14.67
2022-10-31T00:36:42.027Z,14.70
2022-10-31T00:38:45.111Z,14.72
2022-10-31T00:40:47.340Z,14.58
2022-10-31T00:42:49.203Z,14.70
2022-10-31T00:44:51.070Z,14.72
2022-10-31T00:46:53.226Z,14.64
2022-10-31T00:48:55.080Z,14.56
2022-10-31T00:50:57.751Z,14.50
2022-10-31T00:52:59.822Z,14.53
2022-10-31T00:55:01.718Z,14.48
2022-10-31T00:57:04.104Z,14.53
2022-10-31T00:59:06.265Z,14.41
2022-10-31T01:01:08.333Z,14.37
2022-10-31T01:03:10.281Z,14.42
2022-10-31T01:05:12.827Z,14.31
2022-10-31T01:07:15.162Z,14.33
2022-10-31T01:09:17.131Z,14.32
2022-10-31T01:11:22.188Z,14.42
2022-10-31T01:13:24.286Z,14.43
2022-10-31T01:15:26.168Z,14.44
2022-10-31T01:17:28.327Z,14.30
2022-10-31T01:19:30.173Z,14.41
2022-10-31T01:21:32.030Z,14.29
2022-10-31T01:23:34.988Z,14.37
2022-10-31T01:25:36.794Z,14.31
2022-10-31T01:27:38.783Z,14.29
2022-10-31T01:29:40.880Z,14.20
2022-10-31T01:31:42.673Z,14.08
2022-10-31T01:33:44.728Z,13.98
2022-10-31T01:35:46.861Z,13.97
2022-10-31T01:37:48.659Z,14.02
2022-10-31T01:39:50.539Z,14.09
2022-10-31T01:41:54.360Z,14.10
2022-10-31T01:43:59.131Z,14.07
2022-10-31T01:46:01.166Z,13.97
2022-10-31T01:48:03.550Z,14.04
2022-10-31T01:50:12.455Z,14.02
2022-10-31T01:52:22.294Z,14.12
2022-10-31T01:54:30.395Z,14.05
2022-10-31T01:56:34.635Z,13.92
2022-10-31T01:58:36.939Z,13.84
2022-10-31T02:00:40.657Z,13.98
2022-10-31T02:02:43.864Z,13.89
2022-10-31T02:04:48.534Z,14.10
2022-10-31T02:06:59.601Z,14.23
2022-10-31T02:09:03.446Z,14.38
2022-10-31T02:11:06.352Z,14.48
2022-10-31T02:13:09.609Z,14.55
2022-10-31T02:15:11.484Z,14.67
2022-10-31T02:17:14.045Z,14.63
2022-10-31T02:19:44.957Z,14.71
2022-10-31T02:22:05.178Z,14.64
2022-10-31T02:25:02.715Z,14.80
2022-10-31T02:27:10.392Z,14.83
2022-10-31T02:29:15.137Z,14.81
2022-10-31T02:31:29.926Z,14.81
2022-10-31T02:33:41.297Z,14.83
2022-10-31T02:35:50.814Z,14.82
2022-10-31T02:38:03.793Z,14.92
2022-10-31T02:40:11.584Z,14.92
2022-10-31T02:42:31.571Z,14.81
2022-10-31T02:44:56.150Z,14.74
2022-10-31T02:47:09.960Z,14.81
2022-10-31T02:49:51.530Z,14.69
2022-10-31T02:51:53.526Z,14.80
2022-10-31T02:53:55.694Z,14.78
2022-10-31T02:56:01.303Z,14.83
2022-10-31T02:58:12.217Z,14.76
2022-10-31T03:00:14.757Z,14.90
2022-10-31T03:02:31.573Z,14.83
2022-10-31T03:04:53.780Z,14.78
2022-10-31T03:07:44.428Z,14.80
2022-10-31T03:10:05.555Z,14.83
2022-10-31T03:12:43.142Z,14.84
2022-10-31T03:15:20.655Z,14.80
2022-10-31T03:17:29.429Z,14.83
2022-10-31T03:19:38.783Z,14.75
2022-10-31T03:21:47.463Z,14.73
2022-10-31T03:23:52.596Z,14.73
2022-10-31T03:25:55.903Z,14.77
2022-10-31T03:28:01.000Z,14.86
2022-10-31T03:30:06.599Z,14.86
2022-10-31T03:32:20.836Z,14.91
2022-10-31T03:34:24.368Z,14.95
2022-10-31T03:36:28.353Z,14.98
2022-10-31T03:38:30.826Z,14.88
2022-10-31T03:40:36.156Z,14.92
2022-10-31T03:42:42.359Z,14.91
2022-10-31T03:44:51.089Z,14.86
2022-10-31T03:46:52.998Z,14.52
2022-10-31T03:48:55.452Z,14.58
2022-10-31T03:51:10.483Z,14.49
2022-10-31T03:53:21.721Z,14.34
2022-10-31T03:55:40.329Z,14.39
2022-10-31T03:57:49.071Z,14.38
2022-10-31T04:00:04.713Z,14.42
2022-10-31T04:02:11.799Z,14.47
2022-10-31T04:04:15.181Z,14.42
2022-10-31T04:06:20.092Z,14.37
2022-10-31T04:08:27.474Z,14.26
2022-10-31T04:10:32.945Z,14.23
2022-10-31T04:12:37.066Z,14.13
2022-10-31T04:14:41.475Z,14.14
2022-10-31T04:16:44.967Z,14.27
2022-10-31T04:18:46.954Z,14.17
2022-10-31T04:20:51.888Z,14.25
2022-10-31T04:22:53.811Z,14.27
2022-10-31T04:24:55.590Z,14.28
2022-10-31T04:26:57.877Z,14.17
2022-10-31T04:28:59.677Z,14.21
2022-10-31T04:31:01.976Z,14.19
2022-10-31T04:33:04.150Z,14.24
2022-10-31T04:35:06.484Z,14.23
2022-10-31T04:37:08.326Z,14.05
2022-10-31T04:39:10.692Z,14.32
2022-10-31T04:41:12.481Z,14.25
2022-10-31T04:43:14.485Z,14.33
2022-10-31T04:45:20.107Z,14.35
2022-10-31T04:47:23.608Z,14.34
2022-10-31T04:49:25.392Z,14.39
2022-10-31T04:51:27.583Z,14.39
2022-10-31T04:53:30.170Z,14.33
2022-10-31T04:55:32.479Z,14.35
2022-10-31T04:57:42.748Z,14.36
2022-10-31T04:59:44.650Z,14.32
2022-10-31T05:01:46.539Z,14.31
2022-10-31T05:03:48.852Z,14.27
2022-10-31T05:05:50.833Z,14.35
2022-10-31T05:07:53.390Z,14.46
2022-10-31T05:09:55.492Z,14.34
2022-10-31T05:11:57.324Z,14.32
2022-10-31T05:13:59.169Z,14.39
2022-10-31T05:16:01.254Z,14.37
2022-10-31T05:18:03.566Z,14.40
2022-10-31T05:20:06.251Z,14.37
2022-10-31T05:22:08.458Z,14.28
2022-10-31T05:24:10.421Z,14.18
2022-10-31T05:26:12.316Z,14.22
2022-10-31T05:28:14.419Z,14.17
2022-10-31T05:30:19.704Z,14.24
2022-10-31T05:32:21.559Z,14.23
2022-10-31T05:34:23.679Z,14.26
2022-10-31T05:36:25.493Z,14.12
2022-10-31T05:38:27.422Z,14.20
2022-10-31T05:40:30.059Z,14.18
2022-10-31T05:42:31.958Z,14.13
2022-10-31T05:44:33.836Z,14.04
2022-10-31T05:46:35.981Z,14.10
2022-10-31T05:48:37.822Z,14.18
2022-10-31T05:50:39.642Z,14.19
2022-10-31T05:52:41.781Z,14.24
2022-10-31T05:54:43.689Z,14.06
2022-10-31T05:56:45.563Z,14.09
2022-10-31T05:58:47.728Z,14.11
2022-10-31T06:00:49.599Z,14.04
2022-10-31T06:02:59.996Z,14.12
2022-10-31T06:05:03.442Z,13.88
2022-10-31T06:07:05.356Z,13.84
2022-10-31T06:09:07.242Z,13.93
2022-10-31T06:11:09.383Z,14.06
2022-10-31T06:13:11.629Z,14.12
2022-10-31T06:15:13.820Z,14.33
2022-10-31T06:17:16.252Z,14.80
2022-10-31T06:19:18.109Z,14.99
2022-10-31T06:21:20.327Z,15.30
2022-10-31T06:23:22.471Z,15.66
2022-10-31T06:25:24.855Z,16.06
2022-10-31T06:27:27.555Z,16.59
2022-10-31T06:29:29.573Z,16.91
2022-10-31T06:31:31.418Z,17.41
2022-10-31T06:33:35.076Z,17.71
2022-10-31T06:35:37.189Z,17.96
2022-10-31T06:37:39.134Z,18.41
2022-10-31T06:39:41.178Z,18.62
2022-10-31T06:41:43.330Z,18.99
2022-10-31T06:43:48.330Z,19.22
2022-10-31T06:45:50.321Z,19.45
2022-10-31T06:48:15.408Z,19.86
2022-10-31T06:50:16.332Z,19.96
2022-10-31T06:52:18.296Z,20.22
2022-10-31T06:54:20.416Z,20.38
2022-10-31T06:56:22.457Z,20.61
2022-10-31T06:58:24.532Z,20.98
2022-10-31T07:00:29.482Z,21.15
2022-10-31T07:02:31.374Z,21.38
2022-10-31T07:04:33.522Z,21.57
2022-10-31T07:06:35.623Z,21.87
2022-10-31T07:08:37.510Z,22.26
2022-10-31T07:10:42.020Z,22.13
2022-10-31T07:12:44.253Z,22.42
2022-10-31T07:14:46.235Z,22.67
2022-10-31T07:16:52.116Z,23.27
2022-10-31T07:18:54.240Z,22.76
2022-10-31T07:20:56.155Z,23.08
2022-10-31T07:22:58.606Z,23.19
2022-10-31T07:25:01.018Z,23.27
2022-10-31T07:27:02.900Z,23.31
2022-10-31T07:29:04.902Z,22.85
2022-10-31T07:31:07.356Z,23.00
2022-10-31T07:33:09.575Z,23.13
2022-10-31T07:35:18.089Z,23.33
2022-10-31T07:37:20.285Z,22.82
2022-10-31T07:39:22.148Z,23.15
2022-10-31T07:41:24.457Z,22.83
2022-10-31T07:43:27.184Z,22.87
2022-10-31T07:45:32.360Z,22.51
2022-10-31T07:47:51.736Z,22.40
2022-10-31T07:49:53.951Z,22.19
2022-10-31T07:51:56.278Z,21.78
2022-10-31T07:53:58.261Z,22.00
2022-10-31T07:56:00.514Z,22.00
2022-10-31T07:58:08.330Z,21.62
2022-10-31T08:00:11.237Z,22.01
2022-10-31T08:02:13.430Z,21.91
2022-10-31T08:04:15.310Z,21.65
2022-10-31T08:06:17.148Z,21.97
2022-10-31T08:08:19.311Z,21.44
2022-10-31T08:10:21.962Z,21.48
2022-10-31T08:12:23.866Z,21.43
2022-10-31T08:14:26.026Z,22.17
2022-10-31T08:16:28.382Z,22.05
2022-10-31T08:18:30.870Z,22.11
2022-10-31T08:20:32.957Z,22.21
2022-10-31T08:22:37.543Z,22.34
2022-10-31T08:24:41.662Z,22.42
2022-10-31T08:26:43.969Z,22.55
2022-10-31T08:28:46.070Z,22.30
2022-10-31T08:30:48.440Z,22.34
2022-10-31T08:33:20.153Z,22.14
2022-10-31T08:35:21.934Z,22.16
2022-10-31T08:37:25.230Z,22.29
2022-10-31T08:39:27.342Z,22.17
2022-10-31T08:41:29.638Z,22.53
2022-10-31T08:43:31.432Z,22.32
2022-10-31T08:45:35.121Z,22.10
2022-10-31T08:47:36.980Z,22.19
2022-10-31T08:49:39.054Z,21.84
2022-10-31T08:51:41.238Z,22.14
2022-10-31T08:53:43.594Z,22.37
2022-10-31T08:55:46.833Z,22.29
2022-10-31T08:57:49.496Z,22.30
2022-10-31T08:59:51.920Z,22.28
2022-10-31T09:01:53.989Z,22.11
2022-10-31T09:03:57.459Z,22.18
2022-10-31T09:06:01.967Z,21.87
2022-10-31T09:08:14.832Z,22.42
2022-10-31T09:10:18.520Z,22.13
2022-10-31T09:12:20.641Z,22.06
2022-10-31T09:14:22.462Z,22.06
2022-10-31T09:16:24.662Z,22.21
2022-10-31T09:18:29.019Z,22.22
2022-10-31T09:20:32.414Z,21.58
2022-10-31T09:22:35.736Z,21.53
2022-10-31T09:24:37.818Z,21.63
2022-10-31T09:26:39.629Z,21.45
2022-10-31T09:28:41.862Z,21.67
2022-10-31T09:30:43.806Z,21.62
2022-10-31T09:32:45.654Z,21.67
2022-10-31T09:34:49.131Z,21.85
2022-10-31T09:36:54.652Z,21.83
2022-10-31T09:38:56.538Z,21.33
2022-10-31T09:41:20.284Z,21.10
2022-10-31T09:43:31.153Z,21.38
2022-10-31T09:46:15.185Z,21.40
2022-10-31T09:48:43.755Z,20.98
2022-10-31T09:50:50.885Z,20.98
2022-10-31T09:53:04.168Z,20.66
2022-10-31T09:55:20.244Z,20.63
2022-10-31T09:57:34.040Z,20.66
2022-10-31T09:59:40.058Z,20.71
2022-10-31T10:02:25.899Z,20.51
2022-10-31T10:04:46.709Z,20.63
2022-10-31T10:06:52.348Z,20.18
2022-10-31T10:08:54.855Z,20.19
2022-10-31T10:11:17.661Z,20.26
2022-10-31T10:13:41.707Z,20.26
2022-10-31T10:16:04.976Z,20.04
2022-10-31T10:18:37.602Z,20.24
2022-10-31T10:21:05.099Z,20.42
2022-10-31T10:23:47.195Z,19.93
2022-10-31T10:26:00.238Z,19.88
2022-10-31T10:28:13.089Z,19.97
2022-10-31T10:30:21.969Z,19.92
2022-10-31T10:32:31.566Z,19.93
2022-10-31T10:34:40.619Z,19.98
2022-10-31T10:36:47.804Z,20.13
2022-10-31T10:38:54.796Z,20.35
2022-10-31T10:40:58.884Z,20.15
2022-10-31T10:43:32.915Z,20.28
2022-10-31T10:45:53.958Z,20.06
2022-10-31T10:48:11.614Z,20.38
2022-10-31T10:50:13.459Z,20.48
2022-10-31T10:52:50.880Z,20.45
2022-10-31T10:55:16.303Z,20.39
2022-10-31T10:57:37.239Z,20.57
2022-10-31T10:59:39.303Z,20.32
2022-10-31T11:01:42.840Z,20.54
2022-10-31T11:03:44.960Z,20.58
2022-10-31T11:06:02.914Z,20.65
2022-10-31T11:08:07.002Z,20.55
2022-10-31T11:10:17.610Z,20.96
2022-10-31T11:12:32.624Z,20.86
2022-10-31T11:14:43.635Z,20.83
2022-10-31T11:16:48.924Z,20.99
2022-10-31T11:18:51.028Z,20.62
2022-10-31T11:21:00.700Z,21.00
2022-10-31T11:23:27.152Z,21.08
2022-10-31T11:25:29.103Z,20.85
2022-10-31T11:27:31.084Z,21.05
2022-10-31T11:29:33.362Z,21.03
2022-10-31T11:31:36.561Z,20.87
2022-10-31T11:33:38.278Z,21.17
2022-10-31T11:35:41.382Z,21.20
2022-10-31T11:37:45.535Z,21.19
2022-10-31T11:39:57.202Z,21.12
2022-10-31T11:42:08.512Z,21.21
2022-10-31T11:44:21.458Z,21.11
2022-10-31T11:46:26.807Z,21.14
2022-10-31T11:48:29.185Z,21.01
2022-10-31T11:50:41.231Z,21.22
2022-10-31T11:52:43.275Z,21.20
2022-10-31T11:54:57.079Z,21.17
2022-10-31T11:56:59.203Z,21.03
2022-10-31T11:59:05.293Z,21.21
2022-10-31T12:01:31.417Z,21.34
2022-10-31T12:03:43.578Z,21.46
2022-10-31T12:05:49.679Z,21.28
2022-10-31T12:07:53.466Z,21.35
2022-10-31T12:09:56.174Z,21.23
2022-10-31T12:12:36.671Z,21.28
2022-10-31T12:15:09.673Z,21.33
2022-10-31T12:17:23.557Z,21.28
2022-10-31T12:19:51.255Z,21.39
2022-10-31T12:22:35.945Z,21.35
2022-10-31T12:25:08.924Z,21.20
2022-10-31T12:27:22.430Z,21.38
2022-10-31T12:29:24.464Z,21.37
2022-10-31T12:32:05.099Z,21.43
2022-10-31T12:34:26.018Z,21.44
2022-10-31T12:36:30.941Z,21.45
2022-10-31T12:39:14.943Z,21.28
2022-10-31T12:41:49.657Z,21.44
2022-10-31T12:43:58.696Z,21.38
2022-10-31T12:46:02.972Z,21.32
2022-10-31T12:48:29.935Z,21.53
2022-10-31T12:50:56.374Z,21.68
2022-10-31T12:53:13.332Z,21.64
2022-10-31T12:55:48.853Z,21.62
2022-10-31T12:57:59.412Z,21.71
2022-10-31T13:00:13.096Z,21.81
2022-10-31T13:02:36.714Z,22.05
2022-10-31T13:05:04.724Z,21.86
2022-10-31T13:07:13.275Z,21.84
2022-10-31T13:09:20.732Z,21.85
2022-10-31T13:11:44.655Z,21.85
2022-10-31T13:13:53.566Z,21.45
2022-10-31T13:16:02.507Z,21.51
2022-10-31T13:18:14.000Z,21.63
2022-10-31T13:20:42.033Z,21.63
2022-10-31T13:22:47.954Z,21.41
2022-10-31T13:25:00.484Z,21.24
2022-10-31T13:27:12.321Z,21.34
2022-10-31T13:29:32.692Z,21.59
2022-10-31T13:31:34.995Z,21.37
2022-10-31T13:33:44.299Z,20.95
2022-10-31T13:35:52.135Z,21.06
2022-10-31T13:38:01.572Z,20.91
2022-10-31T13:40:06.933Z,21.10
2022-10-31T13:42:24.479Z,21.10
2022-10-31T13:44:28.903Z,20.98
2022-10-31T13:46:34.118Z,20.72
2022-10-31T13:48:40.261Z,20.40
2022-10-31T13:50:44.270Z,20.31
2022-10-31T13:52:46.615Z,20.53
2022-10-31T13:54:56.880Z,20.55
2022-10-31T13:56:59.261Z,20.17
2022-10-31T13:59:04.190Z,20.49
2022-10-31T14:01:12.242Z,20.31
2022-10-31T14:03:36.263Z,19.98
2022-10-31T14:05:43.470Z,20.10
2022-10-31T14:07:47.586Z,19.57
2022-10-31T14:09:52.314Z,19.82
2022-10-31T14:11:56.185Z,19.59
2022-10-31T14:13:59.898Z,19.85
2022-10-31T14:16:06.116Z,19.81
2022-10-31T14:18:39.158Z,19.78
2022-10-31T14:20:42.957Z,19.73
2022-10-31T14:22:45.000Z,19.69
2022-10-31T14:24:47.347Z,19.60
2022-10-31T14:27:01.884Z,19.56
2022-10-31T14:29:16.065Z,19.59
2022-10-31T14:31:39.698Z,19.45
2022-10-31T14:33:43.589Z,19.30
2022-10-31T14:35:54.916Z,19.24
2022-10-31T14:38:16.179Z,19.28
2022-10-31T14:40:32.669Z,18.93
2022-10-31T14:43:05.540Z,18.83
2022-10-31T14:45:37.226Z,18.72
2022-10-31T14:47:48.119Z,18.40
2022-10-31T14:49:58.925Z,18.34
2022-10-31T14:52:02.380Z,18.26
2022-10-31T14:54:07.338Z,18.36
2022-10-31T14:56:12.445Z,18.03
2022-10-31T14:58:21.501Z,17.96
2022-10-31T15:00:25.732Z,17.83
2022-10-31T15:02:53.621Z,17.64
2022-10-31T15:04:56.759Z,17.57
2022-10-31T15:07:13.635Z,17.52
2022-10-31T15:09:33.299Z,17.37
2022-10-31T15:11:39.140Z,17.44
2022-10-31T15:13:50.096Z,17.44
2022-10-31T15:15:55.703Z,17.30
2022-10-31T15:18:04.713Z,17.19
2022-10-31T15:20:07.387Z,17.29
2022-10-31T15:22:15.429Z,17.23
2022-10-31T15:24:19.596Z,17.08
2022-10-31T15:26:24.589Z,17.13
2022-10-31T15:28:27.224Z,16.96
2022-10-31T15:30:30.034Z,16.98
2022-10-31T15:32:31.878Z,16.84
2022-10-31T15:34:33.669Z,16.95
2022-10-31T15:36:38.633Z,16.93
2022-10-31T15:38:40.623Z,16.90
2022-10-31T15:40:56.564Z,16.76
2022-10-31T15:43:02.974Z,16.83
2022-10-31T15:45:10.530Z,16.78
2022-10-31T15:47:21.684Z,16.73
2022-10-31T15:49:35.509Z,16.76
2022-10-31T15:51:38.991Z,16.78
2022-10-31T15:53:53.614Z,16.77
2022-10-31T15:55:59.215Z,16.75
2022-10-31T15:58:16.294Z,16.76
2022-10-31T16:00:41.729Z,16.60
2022-10-31T16:02:43.847Z,16.57
2022-10-31T16:04:55.951Z,16.59
2022-10-31T16:07:23.471Z,16.65
2022-10-31T16:09:26.478Z,16.58
2022-10-31T16:11:38.102Z,16.36
2022-10-31T16:13:58.042Z,16.36
2022-10-31T16:16:32.964Z,16.62
2022-10-31T16:18:27.138Z,16.53
2022-10-31T16:20:33.001Z,16.48
2022-10-31T16:22:39.817Z,16.38
2022-10-31T16:24:49.258Z,16.45
2022-10-31T16:26:53.978Z,16.32
2022-10-31T16:29:05.711Z,16.32
2022-10-31T16:31:15.297Z,16.51
2022-10-31T16:33:31.926Z,16.62
2022-10-31T16:35:37.710Z,16.64
2022-10-31T16:37:42.978Z,16.73
2022-10-31T16:39:44.891Z,16.73
2022-10-31T16:41:54.250Z,16.82
2022-10-31T16:43:56.186Z,16.89
2022-10-31T16:45:58.050Z,16.95
2022-10-31T16:48:10.616Z,16.87
2022-10-31T16:50:15.274Z,16.82
2022-10-31T16:52:18.447Z,16.85
2022-10-31T16:54:21.129Z,17.02
2022-10-31T16:56:31.065Z,17.04
2022-10-31T16:58:34.716Z,17.08
2022-10-31T17:00:38.334Z,17.18
2022-10-31T17:02:40.647Z,17.26
2022-10-31T17:04:43.874Z,17.22
2022-10-31T17:06:48.734Z,17.39
2022-10-31T17:08:50.599Z,17.10
2022-10-31T17:10:54.748Z,17.24
2022-10-31T17:12:58.231Z,17.22
2022-10-31T17:15:00.674Z,17.27
2022-10-31T17:17:02.527Z,17.11
2022-10-31T17:19:05.052Z,17.50
2022-10-31T17:21:07.265Z,17.22
2022-10-31T17:23:11.386Z,17.47
2022-10-31T17:25:17.469Z,17.56
2022-10-31T17:27:19.537Z,17.29
2022-10-31T17:29:21.820Z,17.41
2022-10-31T17:31:29.608Z,17.42
2022-10-31T17:33:31.718Z,17.47
2022-10-31T17:35:33.631Z,17.36
2022-10-31T17:37:36.480Z,17.47
2022-10-31T17:39:39.962Z,17.61
2022-10-31T17:41:41.729Z,17.48
2022-10-31T17:43:47.435Z,17.22
2022-10-31T17:45:49.502Z,17.20
2022-10-31T17:47:53.151Z,17.24
2022-10-31T17:49:55.389Z,17.50
2022-10-31T17:51:57.241Z,17.37
2022-10-31T17:53:59.076Z,17.09
2022-10-31T17:56:02.366Z,17.23
2022-10-31T17:58:04.484Z,17.06
2022-10-31T18:00:09.629Z,17.07
2022-10-31T18:02:12.608Z,17.16
2022-10-31T18:04:15.104Z,16.93
2022-10-31T18:06:17.531Z,16.92
2022-10-31T18:08:19.786Z,17.11
2022-10-31T18:10:21.755Z,17.01
2022-10-31T18:12:24.156Z,17.26
2022-10-31T18:14:26.540Z,17.29
2022-10-31T18:16:29.419Z,17.54
2022-10-31T18:18:31.325Z,17.40
2022-10-31T18:20:33.719Z,17.50
2022-10-31T18:22:35.670Z,17.25
2022-10-31T18:24:39.260Z,17.23
2022-10-31T18:26:41.490Z,17.41
2022-10-31T18:28:44.372Z,17.58
2022-10-31T18:30:46.480Z,17.29
2022-10-31T18:32:53.170Z,17.48
2022-10-31T18:34:55.127Z,17.29
2022-10-31T18:36:57.007Z,17.47
2022-10-31T18:38:59.326Z,17.61
2022-10-31T18:41:01.346Z,17.39
2022-10-31T18:43:11.679Z,17.36
2022-10-31T18:45:32.616Z,17.46
2022-10-31T18:47:37.499Z,17.58
2022-10-31T18:49:39.634Z,17.49
2022-10-31T18:51:41.821Z,17.71
2022-10-31T18:53:53.317Z,17.78
2022-10-31T18:55:55.141Z,17.88
2022-10-31T18:57:57.327Z,17.66
2022-10-31T18:59:59.188Z,17.73
2022-10-31T19:02:01.380Z,17.56
2022-10-31T19:04:03.931Z,17.52
2022-10-31T19:06:07.682Z,17.61
2022-10-31T19:08:09.751Z,17.56
2022-10-31T19:10:12.027Z,17.63
2022-10-31T19:12:13.981Z,17.57
2022-10-31T19:14:15.931Z,17.81
2022-10-31T19:16:18.453Z,17.69
2022-10-31T19:18:20.723Z,17.67
2022-10-31T19:20:24.403Z,17.58
2022-10-31T19:22:26.638Z,17.73
2022-10-31T19:24:29.143Z,17.87
2022-10-31T19:26:33.237Z,17.89
2022-10-31T19:28:37.801Z,17.89
2022-10-31T19:30:39.661Z,17.88
2022-10-31T19:32:41.614Z,17.73
2022-10-31T19:34:45.007Z,17.62
2022-10-31T19:36:47.044Z,17.82
2022-10-31T19:38:51.376Z,17.83
2022-10-31T19:41:00.104Z,17.72
2022-10-31T19:43:01.930Z,17.85
2022-10-31T19:45:05.004Z,17.74
2022-10-31T19:47:07.228Z,17.88
2022-10-31T19:49:09.953Z,17.89
2022-10-31T19:51:14.151Z,17.79
2022-10-31T19:53:16.921Z,17.85
2022-10-31T19:55:18.699Z,17.92
2022-10-31T19:57:35.819Z,17.93
2022-10-31T19:59:42.608Z,17.88
2022-10-31T20:01:44.497Z,17.91
2022-10-31T20:03:47.243Z,17.89
2022-10-31T20:05:50.279Z,17.95
2022-10-31T20:07:52.153Z,17.90
2022-10-31T20:09:54.070Z,17.88
2022-10-31T20:11:57.072Z,17.87
2022-10-31T20:13:59.978Z,18.04
2022-10-31T20:16:10.362Z,18.06
2022-10-31T20:18:12.488Z,18.14
2022-10-31T20:20:14.452Z,18.33
2022-10-31T20:22:16.259Z,18.42
2022-10-31T20:24:18.451Z,18.31
2022-10-31T20:26:20.580Z,18.24
2022-10-31T20:28:23.215Z,18.23
2022-10-31T20:30:26.448Z,18.20
2022-10-31T20:32:28.260Z,18.28
2022-10-31T20:34:30.254Z,18.14
2022-10-31T20:36:32.462Z,18.37
2022-10-31T20:38:37.940Z,18.24
2022-10-31T20:40:39.894Z,18.23
2022-10-31T20:42:42.111Z,18.19
2022-10-31T20:44:44.417Z,18.11
2022-10-31T20:46:46.282Z,18.06
2022-10-31T20:48:50.071Z,18.16
2022-10-31T20:50:59.415Z,18.15
2022-10-31T20:53:01.736Z,18.08
2022-10-31T20:55:05.491Z,18.26
2022-10-31T20:57:07.610Z,18.26
2022-10-31T20:59:09.586Z,18.36
2022-10-31T21:01:23.317Z,18.39
2022-10-31T21:03:26.443Z,18.38
2022-10-31T21:05:28.343Z,18.26
2022-10-31T21:07:34.909Z,18.34
2022-10-31T21:09:36.898Z,18.17
2022-10-31T21:11:38.763Z,17.96
2022-10-31T21:13:42.871Z,17.86
2022-10-31T21:15:45.034Z,17.95
2022-10-31T21:17:49.335Z,18.02
2022-10-31T21:19:51.435Z,17.89
2022-10-31T21:21:54.818Z,18.13
2022-10-31T21:23:59.009Z,18.15
2022-10-31T21:26:09.390Z,18.07
2022-10-31T21:28:12.196Z,18.11
2022-10-31T21:30:14.071Z,18.26
2022-10-31T21:32:16.230Z,18.21
2022-10-31T21:34:18.152Z,18.17
2022-10-31T21:36:20.305Z,18.06
2022-10-31T21:38:22.459Z,17.83
2022-10-31T21:40:27.790Z,18.07
2022-10-31T21:42:29.798Z,17.81
2022-10-31T21:44:33.788Z,17.89
2022-10-31T21:46:37.550Z,17.83
2022-10-31T21:48:43.482Z,17.96
2022-10-31T21:50:45.620Z,18.08
2022-10-31T21:52:47.426Z,18.54
2022-10-31T21:54:49.298Z,18.15
2022-10-31T21:56:51.820Z,17.86
2022-10-31T21:58:54.382Z,17.85
2022-10-31T22:01:01.685Z,17.71
2022-10-31T22:03:03.997Z,17.64
2022-10-31T22:05:06.083Z,17.68
2022-10-31T22:07:08.195Z,18.02
2022-10-31T22:09:13.627Z,17.93
2022-10-31T22:11:17.548Z,17.98
2022-10-31T22:13:19.425Z,18.06
2022-10-31T22:15:23.716Z,17.76
2022-10-31T22:17:25.558Z,18.18
2022-10-31T22:19:27.414Z,18.16
2022-10-31T22:21:29.611Z,18.02
2022-10-31T22:23:31.762Z,17.96
2022-10-31T22:25:37.480Z,17.99
2022-10-31T22:27:39.636Z,17.96
2022-10-31T22:29:41.614Z,17.85
2022-10-31T22:31:46.106Z,18.03
2022-10-31T22:33:48.890Z,18.09
2022-10-31T22:35:50.729Z,17.99
2022-10-31T22:37:52.682Z,18.16
2022-10-31T22:39:54.833Z,18.08
2022-10-31T22:41:56.621Z,18.19
2022-10-31T22:43:59.184Z,18.13
2022-10-31T22:46:05.363Z,18.08
2022-10-31T22:48:07.223Z,18.02
2022-10-31T22:50:09.238Z,17.99
2022-10-31T22:52:11.389Z,17.98
2022-10-31T22:54:16.542Z,18.06
2022-10-31T22:56:21.147Z,17.96
2022-10-31T22:58:23.258Z,17.44
2022-10-31T23:00:25.817Z,17.89
2022-10-31T23:02:28.456Z,17.95
2022-10-31T23:04:30.565Z,17.99
2022-10-31T23:06:33.228Z,18.00
2022-10-31T23:08:37.748Z,18.03
2022-10-31T23:10:42.225Z,17.90
2022-10-31T23:13:02.602Z,17.86
2022-10-31T23:15:05.060Z,18.03
2022-10-31T23:17:07.205Z,17.93
2022-10-31T23:19:10.161Z,17.92
2022-10-31T23:21:31.849Z,17.88
2022-10-31T23:23:36.574Z,17.92
2022-10-31T23:25:57.214Z,17.79
2022-10-31T23:27:58.994Z,17.82
2022-10-31T23:30:01.516Z,17.75
2022-10-31T23:32:05.044Z,17.87
2022-10-31T23:34:06.867Z,17.90
2022-10-31T23:36:09.115Z,17.87
2022-10-31T23:38:11.013Z,17.86
2022-10-31T23:40:12.787Z,17.88
2022-10-31T23:42:15.730Z,17.86
2022-10-31T23:44:17.931Z,17.83
2022-10-31T23:46:19.900Z,17.86
2022-10-31T23:48:22.213Z,17.68
2022-10-31T23:50:24.035Z,17.71
2022-10-31T23:52:25.799Z,17.82
2022-10-31T23:54:28.322Z,17.80
2022-10-31T23:56:30.323Z,17.71
2022-10-31T23:58:32.111Z,17.79
